Bordersville, Texas
Current Conditions -  °F | °C
As of 9:53 AM on Wednesday 22 Oct 2014 (Local Time) from KIAH Reporting Station
Few Clouds Few Clouds  
Wind Chill: 72°   Ceiling: Unl
Heat Index: 72°   Visibility: 10mi
Dew Point: 63°   Wind: 7mph
Humidity: 73%   Direction: 70°ENE
Pressure: 30.11"   Gusts: NA
Location:  30.0245°N, 95.2914°W
Report Text: KIAH 221453Z 07006KT 10SM FEW180 22/17 A3011 RMK AO2 SLP195 T02220172 51016
Loading
Personal Weather Stations






























Interactive Weather Map
Tropical Storm Tracking
New forecast layout! Learn more

10-Day Weather Forecast

Advertisements
Track Severe Weather on mobile